createdAt,value
2022-08-14T00:03:56.327Z,100.00
2022-08-14T00:07:46.444Z,100.00
2022-08-14T00:11:31.334Z,100.00
2022-08-14T00:15:16.142Z,100.00
2022-08-14T00:19:06.410Z,100.00
2022-08-14T00:23:12.630Z,100.00
2022-08-14T00:27:05.613Z,100.00
2022-08-14T00:30:55.739Z,100.00
2022-08-14T00:34:49.219Z,100.00
2022-08-14T00:38:16.433Z,100.00
2022-08-14T00:42:05.531Z,100.00
2022-08-14T00:45:43.221Z,100.00
2022-08-14T00:49:30.403Z,100.00
2022-08-14T00:53:06.374Z,100.00
2022-08-14T00:56:19.369Z,100.00
2022-08-14T00:59:54.394Z,100.00
2022-08-14T01:03:10.526Z,100.00
2022-08-14T01:06:51.394Z,100.00
2022-08-14T01:10:45.022Z,100.00
2022-08-14T01:14:38.021Z,100.00
2022-08-14T01:18:28.282Z,100.00
2022-08-14T01:22:26.699Z,100.00
2022-08-14T01:25:55.956Z,100.00
2022-08-14T01:29:51.230Z,100.00
2022-08-14T01:32:43.916Z,100.00
2022-08-14T01:36:22.865Z,100.00
2022-08-14T01:40:12.630Z,100.00
2022-08-14T01:44:06.220Z,100.00
2022-08-14T01:48:03.642Z,100.00
2022-08-14T01:51:52.870Z,100.00
2022-08-14T01:55:36.847Z,100.00
2022-08-14T01:59:26.802Z,100.00
2022-08-14T02:02:22.877Z,100.00
2022-08-14T02:05:52.883Z,100.00
2022-08-14T02:09:42.264Z,100.00
2022-08-14T02:13:21.367Z,100.00
2022-08-14T02:17:11.493Z,100.00
2022-08-14T02:21:00.778Z,100.00
2022-08-14T02:24:49.888Z,100.00
2022-08-14T02:28:58.028Z,100.00
2022-08-14T02:32:48.962Z,100.00
2022-08-14T02:37:03.950Z,100.00
2022-08-14T02:40:47.291Z,100.00
2022-08-14T02:44:39.863Z,100.00
2022-08-14T02:49:02.063Z,100.00
2022-08-14T02:52:56.355Z,100.00
2022-08-14T02:57:15.562Z,100.00
2022-08-14T03:00:57.399Z,100.00
2022-08-14T03:04:47.121Z,100.00
2022-08-14T03:08:36.250Z,100.00
2022-08-14T03:12:31.402Z,100.00
2022-08-14T03:16:19.884Z,100.00
2022-08-14T03:20:15.763Z,100.00
2022-08-14T03:23:45.201Z,100.00
2022-08-14T03:26:44.291Z,100.00
2022-08-14T03:30:39.052Z,100.00
2022-08-14T03:34:47.755Z,100.00
2022-08-14T03:39:14.561Z,100.00
2022-08-14T03:42:31.052Z,100.00
2022-08-14T03:46:38.710Z,100.00
2022-08-14T03:50:44.621Z,100.00
2022-08-14T03:54:39.648Z,100.00
2022-08-14T03:58:36.477Z,100.00
2022-08-14T04:02:37.185Z,100.00
2022-08-14T04:06:28.322Z,100.00
2022-08-14T04:10:31.623Z,100.00
2022-08-14T04:14:21.382Z,100.00
2022-08-14T04:18:12.805Z,100.00
2022-08-14T04:22:03.544Z,100.00
2022-08-14T04:25:53.748Z,100.00
2022-08-14T04:29:44.943Z,100.00
2022-08-14T04:33:34.918Z,100.00
2022-08-14T04:37:27.504Z,100.00
2022-08-14T04:41:17.012Z,100.00
2022-08-14T04:45:05.954Z,100.00
2022-08-14T04:49:00.150Z,100.00
2022-08-14T04:52:53.937Z,100.00
2022-08-14T04:56:45.566Z,100.00
2022-08-14T05:00:35.383Z,100.00
2022-08-14T05:04:27.614Z,100.00
2022-08-14T05:08:32.251Z,100.00
2022-08-14T05:13:13.123Z,100.00
2022-08-14T05:16:35.720Z,100.00
2022-08-14T05:21:05.113Z,100.00
2022-08-14T05:24:34.349Z,100.00
2022-08-14T05:28:24.249Z,100.00
2022-08-14T05:32:13.693Z,100.00
2022-08-14T05:36:04.773Z,100.00
2022-08-14T05:39:55.001Z,100.00
2022-08-14T05:43:45.046Z,100.00
2022-08-14T05:47:38.944Z,100.00
2022-08-14T05:51:31.745Z,100.00
2022-08-14T05:55:23.279Z,100.00
2022-08-14T05:59:13.736Z,100.00
2022-08-14T06:03:06.931Z,100.00
2022-08-14T06:06:56.822Z,100.00
2022-08-14T06:10:47.313Z,100.00
2022-08-14T06:14:36.893Z,100.00
2022-08-14T06:18:26.360Z,100.00
2022-08-14T06:22:24.398Z,100.00
2022-08-14T06:26:15.425Z,100.00
2022-08-14T06:30:06.236Z,100.00
2022-08-14T06:35:11.156Z,100.00
2022-08-14T06:38:16.725Z,100.00
2022-08-14T06:42:07.037Z,100.00
2022-08-14T06:45:57.167Z,100.00
2022-08-14T06:49:55.991Z,100.00
2022-08-14T06:53:48.080Z,100.00
2022-08-14T06:57:38.218Z,100.00
2022-08-14T07:01:27.425Z,100.00
2022-08-14T07:05:21.130Z,100.00
2022-08-14T07:09:23.087Z,100.00
2022-08-14T07:13:13.099Z,100.00
2022-08-14T07:17:03.072Z,100.00
2022-08-14T07:20:53.350Z,100.00
2022-08-14T07:24:43.619Z,99.63
2022-08-14T07:28:32.887Z,99.18
2022-08-14T07:32:22.350Z,97.30
2022-08-14T07:36:27.564Z,92.68
2022-08-14T07:40:22.013Z,91.56
2022-08-14T07:44:28.911Z,89.14
2022-08-14T07:48:25.415Z,85.94
2022-08-14T07:52:22.234Z,82.88
2022-08-14T07:56:44.250Z,79.68
2022-08-14T08:00:31.430Z,77.69
2022-08-14T08:04:24.091Z,72.32
2022-08-14T08:08:27.415Z,69.75
2022-08-14T08:12:21.712Z,67.34
2022-08-14T08:16:13.358Z,61.15
2022-08-14T08:20:06.187Z,62.69
2022-08-14T08:23:58.673Z,63.54
2022-08-14T08:27:57.829Z,64.04
2022-08-14T08:31:52.208Z,63.45
2022-08-14T08:35:50.730Z,63.40
2022-08-14T08:40:01.799Z,62.66
2022-08-14T08:44:17.290Z,62.89
2022-08-14T08:48:20.852Z,61.50
2022-08-14T08:52:29.025Z,58.74
2022-08-14T08:56:39.549Z,57.53
2022-08-14T09:00:30.726Z,56.72
2022-08-14T09:04:23.196Z,56.94
2022-08-14T09:08:31.541Z,56.29
2022-08-14T09:12:22.063Z,56.26
2022-08-14T09:16:18.410Z,55.83
2022-08-14T09:20:11.370Z,55.70
2022-08-14T09:24:28.784Z,55.33
2022-08-14T09:28:13.186Z,53.65
2022-08-14T09:32:04.162Z,52.69
2022-08-14T09:36:14.118Z,52.82
2022-08-14T09:40:11.505Z,52.37
2022-08-14T09:44:20.813Z,52.86
2022-08-14T09:48:27.564Z,53.61
2022-08-14T09:52:32.806Z,54.19
2022-08-14T09:56:30.243Z,53.75
2022-08-14T10:00:30.106Z,53.33
2022-08-14T10:04:37.721Z,53.25
2022-08-14T10:08:35.396Z,53.47
2022-08-14T10:12:34.044Z,52.44
2022-08-14T10:16:27.311Z,50.73
2022-08-14T10:20:40.439Z,48.19
2022-08-14T10:24:44.592Z,47.69
2022-08-14T10:28:51.574Z,47.53
2022-08-14T10:32:51.354Z,47.05
2022-08-14T10:36:44.828Z,48.87
2022-08-14T10:40:44.785Z,48.54
2022-08-14T10:44:45.304Z,48.76
2022-08-14T10:48:44.930Z,50.86
2022-08-14T10:52:37.946Z,52.13
2022-08-14T10:56:35.319Z,50.92
2022-08-14T11:00:35.701Z,51.46
2022-08-14T11:04:25.929Z,51.64
2022-08-14T11:08:16.534Z,50.18
2022-08-14T11:12:34.550Z,49.39
2022-08-14T11:16:15.917Z,51.37
2022-08-14T11:20:06.373Z,49.96
2022-08-14T11:24:50.993Z,48.78
2022-08-14T11:28:19.633Z,49.77
2022-08-14T11:32:28.755Z,50.16
2022-08-14T11:36:19.174Z,50.33
2022-08-14T11:40:08.680Z,48.50
2022-08-14T11:43:58.891Z,47.85
2022-08-14T11:48:11.151Z,47.09
2022-08-14T11:51:59.022Z,47.48
2022-08-14T11:55:50.929Z,47.00
2022-08-14T11:59:44.519Z,47.97
2022-08-14T12:03:46.514Z,49.20
2022-08-14T12:07:53.373Z,51.76
2022-08-14T12:11:47.014Z,51.26
2022-08-14T12:15:51.393Z,49.90
2022-08-14T12:19:41.025Z,50.79
2022-08-14T12:23:35.631Z,52.47
2022-08-14T12:27:25.766Z,51.27
2022-08-14T12:31:36.334Z,51.88
2022-08-14T12:35:34.530Z,58.31
2022-08-14T12:39:39.878Z,57.03
2022-08-14T12:43:35.566Z,56.44
2022-08-14T12:47:25.735Z,55.51
2022-08-14T12:51:27.080Z,53.09
2022-08-14T12:55:17.615Z,52.02
2022-08-14T12:59:10.890Z,51.93
2022-08-14T13:03:04.202Z,51.47
2022-08-14T13:06:53.735Z,51.30
2022-08-14T13:10:52.018Z,51.66
2022-08-14T13:14:48.123Z,50.29
2022-08-14T13:18:38.668Z,48.89
2022-08-14T13:22:33.631Z,50.69
2022-08-14T13:26:28.382Z,49.45
2022-08-14T13:30:21.304Z,48.60
2022-08-14T13:34:13.839Z,49.39
2022-08-14T13:38:04.282Z,48.76
2022-08-14T13:41:55.995Z,47.26
2022-08-14T13:46:00.925Z,46.74
2022-08-14T13:49:57.455Z,47.20
2022-08-14T13:54:06.950Z,46.59
2022-08-14T13:58:04.606Z,47.72
2022-08-14T14:01:55.419Z,49.36
2022-08-14T14:05:53.207Z,48.77
2022-08-14T14:09:52.998Z,48.31
2022-08-14T14:13:45.251Z,49.10
2022-08-14T14:17:35.370Z,48.38
2022-08-14T14:21:28.496Z,48.66
2022-08-14T14:25:19.449Z,48.45
2022-08-14T14:29:11.413Z,47.89
2022-08-14T14:33:05.146Z,47.29
2022-08-14T14:37:00.762Z,49.76
2022-08-14T14:41:00.632Z,50.38
2022-08-14T14:44:51.699Z,50.58
2022-08-14T14:48:54.777Z,51.62
2022-08-14T14:52:47.009Z,51.87
2022-08-14T14:56:51.945Z,51.37
2022-08-14T15:00:42.951Z,49.50
2022-08-14T15:04:43.749Z,49.56
2022-08-14T15:08:55.911Z,48.47
2022-08-14T15:12:56.653Z,48.15
2022-08-14T15:16:49.155Z,49.52
2022-08-14T15:20:40.561Z,49.23
2022-08-14T15:24:30.723Z,48.96
2022-08-14T15:28:22.091Z,48.89
2022-08-14T15:32:12.807Z,48.26
2022-08-14T15:36:02.683Z,47.63
2022-08-14T15:39:54.245Z,47.24
2022-08-14T15:43:43.599Z,46.85
2022-08-14T15:47:41.501Z,47.43
2022-08-14T15:51:32.044Z,47.24
2022-08-14T15:55:21.667Z,47.18
2022-08-14T15:59:13.261Z,47.53
2022-08-14T16:03:09.631Z,47.95
2022-08-14T16:07:01.108Z,47.09
2022-08-14T16:10:51.521Z,47.07
2022-08-14T16:14:45.835Z,47.20
2022-08-14T16:22:57.618Z,48.50
2022-08-14T16:26:51.617Z,49.44
2022-08-14T16:30:40.798Z,51.17
2022-08-14T16:34:47.157Z,52.06
2022-08-14T16:38:46.299Z,51.98
2022-08-14T16:42:39.044Z,50.22
2022-08-14T16:46:46.892Z,49.94
2022-08-14T16:50:43.465Z,50.77
2022-08-14T16:54:45.033Z,51.24
2022-08-14T16:58:35.186Z,51.28
2022-08-14T17:02:28.321Z,52.36
2022-08-14T17:06:30.611Z,52.76
2022-08-14T17:10:28.034Z,53.74
2022-08-14T17:14:22.142Z,53.81
2022-08-14T17:18:30.954Z,53.99
2022-08-14T17:22:26.935Z,54.06
2022-08-14T17:26:16.968Z,54.84
2022-08-14T17:29:57.687Z,55.21
2022-08-14T17:33:53.167Z,56.18
2022-08-14T17:37:45.217Z,57.08
2022-08-14T17:41:36.214Z,56.87
2022-08-14T17:45:06.805Z,57.38
2022-08-14T17:49:14.168Z,57.32
2022-08-14T17:53:09.317Z,58.45
2022-08-14T17:56:58.971Z,60.45
2022-08-14T18:00:39.873Z,60.55
2022-08-14T18:04:28.626Z,60.72
2022-08-14T18:08:33.301Z,61.54
2022-08-14T18:11:57.481Z,62.30
2022-08-14T18:15:14.546Z,62.48
2022-08-14T18:18:59.284Z,63.72
2022-08-14T18:22:52.391Z,64.19
2022-08-14T18:26:41.508Z,65.27
2022-08-14T18:30:33.346Z,65.97
2022-08-14T18:34:30.190Z,66.42
2022-08-14T18:37:55.781Z,67.49
2022-08-14T18:41:37.203Z,68.13
2022-08-14T18:45:31.906Z,69.45
2022-08-14T18:49:23.643Z,70.15
2022-08-14T18:53:16.295Z,70.53
2022-08-14T18:57:05.661Z,71.41
2022-08-14T19:01:10.780Z,71.80
2022-08-14T19:04:54.770Z,73.49
2022-08-14T19:08:59.534Z,74.13
2022-08-14T19:12:49.471Z,73.81
2022-08-14T19:16:48.405Z,73.87
2022-08-14T19:20:45.470Z,74.85
2022-08-14T19:24:50.193Z,76.00
2022-08-14T19:28:27.430Z,76.72
2022-08-14T19:32:26.149Z,78.23
2022-08-14T19:36:28.915Z,78.81
2022-08-14T19:40:31.731Z,80.07
2022-08-14T19:44:14.330Z,80.17
2022-08-14T19:48:15.704Z,80.31
2022-08-14T19:52:17.489Z,81.59
2022-08-14T19:56:29.010Z,85.87
2022-08-14T20:00:28.716Z,89.46
2022-08-14T20:04:45.805Z,92.05
2022-08-14T20:11:00.094Z,94.85
2022-08-14T20:12:57.402Z,95.44
2022-08-14T20:16:51.474Z,95.51
2022-08-14T20:20:41.322Z,98.83
2022-08-14T20:24:37.607Z,100.00
2022-08-14T20:28:35.406Z,100.00
2022-08-14T20:32:17.393Z,100.00
2022-08-14T20:36:16.082Z,100.00
2022-08-14T20:39:40.193Z,100.00
2022-08-14T20:43:35.494Z,100.00
2022-08-14T20:47:18.111Z,100.00
2022-08-14T20:51:11.377Z,100.00
2022-08-14T20:55:03.213Z,100.00
2022-08-14T20:58:52.504Z,100.00
2022-08-14T21:02:50.465Z,100.00
2022-08-14T21:07:23.940Z,100.00
2022-08-14T21:10:55.040Z,100.00
2022-08-14T21:14:51.952Z,100.00
2022-08-14T21:18:31.688Z,100.00
2022-08-14T21:22:11.748Z,100.00
2022-08-14T21:25:59.756Z,100.00
2022-08-14T21:29:56.014Z,100.00
2022-08-14T21:33:35.698Z,100.00
2022-08-14T21:37:26.014Z,100.00
2022-08-14T21:41:42.828Z,100.00
2022-08-14T21:45:29.180Z,100.00
2022-08-14T21:49:24.679Z,100.00
2022-08-14T21:53:03.501Z,100.00
2022-08-14T21:56:57.748Z,100.00
2022-08-14T21:59:52.249Z,100.00
2022-08-14T22:03:24.400Z,100.00
2022-08-14T22:07:12.292Z,100.00
2022-08-14T22:10:54.416Z,100.00
2022-08-14T22:14:44.223Z,100.00
2022-08-14T22:18:33.579Z,100.00
2022-08-14T22:22:11.772Z,100.00
2022-08-14T22:25:59.600Z,100.00
2022-08-14T22:29:54.778Z,100.00
2022-08-14T22:33:40.255Z,100.00
2022-08-14T22:37:31.844Z,100.00
2022-08-14T22:41:28.349Z,100.00
2022-08-14T22:45:20.632Z,100.00
2022-08-14T22:49:01.099Z,100.00
2022-08-14T22:53:06.708Z,100.00
2022-08-14T22:56:55.869Z,100.00
2022-08-14T23:00:33.606Z,100.00
2022-08-14T23:04:34.996Z,100.00
2022-08-14T23:08:59.207Z,100.00
2022-08-14T23:12:29.960Z,100.00
2022-08-14T23:16:19.995Z,100.00
2022-08-14T23:20:09.557Z,100.00
2022-08-14T23:24:07.125Z,100.00
2022-08-14T23:28:03.095Z,100.00
2022-08-14T23:31:55.948Z,100.00
2022-08-14T23:35:59.158Z,100.00
2022-08-14T23:39:49.226Z,100.00
2022-08-14T23:43:44.855Z,100.00
2022-08-14T23:47:27.624Z,100.00
2022-08-14T23:51:15.556Z,100.00
2022-08-14T23:55:05.541Z,100.00
2022-08-14T23:59:00.437Z,100.00
